Time;durP1;ratioP1;P1;durP2;ratioP2;P2;SDS_P1;SDS_P2;PMS_P1;PMS_P2;Temp;Humidity;BMP_temperature;BMP_pressure;BME280_temperature;BME280_humidity;BME280_pressure;Samples;Min_cycle;Max_cycle;Signal;HPM_P1;HPM_P2
2022/09/14 00:01:43;;;;;;;13.23;3.20;;;;;;;;;;5021350;28;20040;-65
2022/09/14 00:04:14;;;;;;;14.13;2.92;;;;;;;;;;5033865;28;20029;-65
2022/09/14 00:06:41;;;;;;;17.50;3.28;;;;;;;;;;5016486;28;20412;-65
2022/09/14 00:09:09;;;;;;;18.05;3.78;;;;;;;;;;5033170;28;20632;-66
2022/09/14 00:11:36;;;;;;;15.68;3.95;;;;;;;;;;5038482;28;20024;-66
2022/09/14 00:14:02;;;;;;;14.00;3.50;;;;;;;;;;5031725;28;20447;-66
2022/09/14 00:16:30;;;;;;;16.90;3.55;;;;;;;;;;5035880;28;20135;-66
2022/09/14 00:18:59;;;;;;;14.30;3.45;;;;;;;;;;5031151;28;20170;-66
2022/09/14 00:21:25;;;;;;;15.52;3.58;;;;;;;;;;5039118;28;20029;-66
2022/09/14 00:23:52;;;;;;;16.10;3.45;;;;;;;;;;5031649;28;20040;-66
2022/09/14 00:26:22;;;;;;;17.05;3.92;;;;;;;;;;5019670;28;20036;-67
2022/09/14 00:28:49;;;;;;;18.23;3.75;;;;;;;;;;5032669;28;20037;-67
2022/09/14 00:31:16;;;;;;;16.38;3.58;;;;;;;;;;5025779;28;20028;-66
2022/09/14 00:33:43;;;;;;;20.58;3.80;;;;;;;;;;5035650;28;20032;-67
2022/09/14 00:36:11;;;;;;;13.65;3.38;;;;;;;;;;5029619;28;20048;-66
2022/09/14 00:38:38;;;;;;;20.02;3.90;;;;;;;;;;5035357;28;20341;-67
2022/09/14 00:41:06;;;;;;;14.77;3.80;;;;;;;;;;5034947;28;20041;-67
2022/09/14 00:43:32;;;;;;;18.08;4.70;;;;;;;;;;5038722;28;20040;-66
2022/09/14 00:46:01;;;;;;;16.17;3.90;;;;;;;;;;5016024;28;20581;-66
2022/09/14 00:48:29;;;;;;;18.95;4.13;;;;;;;;;;5036471;28;20029;-67
2022/09/14 00:50:55;;;;;;;18.83;4.00;;;;;;;;;;5010353;28;20032;-66
2022/09/14 00:53:22;;;;;;;17.65;4.25;;;;;;;;;;5017993;28;20065;-66
2022/09/14 00:55:48;;;;;;;23.23;5.32;;;;;;;;;;5035199;28;20033;-67
2022/09/14 00:58:14;;;;;;;15.02;3.88;;;;;;;;;;5035242;28;20043;-67
2022/09/14 01:00:41;;;;;;;19.20;4.20;;;;;;;;;;5035074;28;20098;-66
2022/09/14 01:03:07;;;;;;;17.42;4.07;;;;;;;;;;5033862;28;20063;-66
2022/09/14 01:05:53;;;;;;;16.50;3.95;;;;;;;;;;5031244;28;20043;-66
2022/09/14 01:08:19;;;;;;;19.52;4.13;;;;;;;;;;5029343;28;20133;-67
2022/09/14 01:11:04;;;;;;;18.77;4.10;;;;;;;;;;5029755;28;20025;-67
2022/09/14 01:13:41;;;;;;;20.45;4.07;;;;;;;;;;5034858;28;20301;-67
2022/09/14 01:16:40;;;;;;;17.25;3.92;;;;;;;;;;5016133;28;20025;-67
2022/09/14 01:19:13;;;;;;;17.60;3.58;;;;;;;;;;4945060;28;20054;-67
2022/09/14 01:21:42;;;;;;;20.52;3.67;;;;;;;;;;4947365;28;20520;-67
2022/09/14 01:24:26;;;;;;;19.15;3.70;;;;;;;;;;4943095;28;20568;-67
2022/09/14 01:26:58;;;;;;;22.65;4.45;;;;;;;;;;4929448;28;20543;-67
2022/09/14 01:29:37;;;;;;;18.35;3.38;;;;;;;;;;4947158;28;20528;-67
2022/09/14 01:32:10;;;;;;;15.15;3.38;;;;;;;;;;4943640;28;20157;-67
2022/09/14 01:34:40;;;;;;;16.23;3.40;;;;;;;;;;4944970;28;20508;-67
2022/09/14 01:37:12;;;;;;;18.50;3.53;;;;;;;;;;4942305;28;20406;-67
2022/09/14 01:39:42;;;;;;;18.27;3.72;;;;;;;;;;4946797;28;20069;-67
2022/09/14 01:42:09;;;;;;;16.27;3.78;;;;;;;;;;4946405;28;20053;-67
2022/09/14 01:44:36;;;;;;;23.05;3.60;;;;;;;;;;4946465;28;20039;-67
2022/09/14 01:47:07;;;;;;;17.75;3.63;;;;;;;;;;4945466;28;20031;-67
2022/09/14 01:49:46;;;;;;;21.67;4.20;;;;;;;;;;4944254;28;20045;-67
2022/09/14 01:52:14;;;;;;;19.40;5.00;;;;;;;;;;4944209;28;20805;-67
2022/09/14 01:54:40;;;;;;;20.70;4.40;;;;;;;;;;4990444;28;20062;-67
2022/09/14 01:57:07;;;;;;;19.92;4.20;;;;;;;;;;5031480;28;20121;-67
2022/09/14 01:59:36;;;;;;;18.77;4.20;;;;;;;;;;5040010;28;20065;-67
2022/09/14 02:02:11;;;;;;;21.38;4.05;;;;;;;;;;5031324;28;20047;-67
2022/09/14 02:04:37;;;;;;;19.67;3.90;;;;;;;;;;5018734;28;20044;-67
2022/09/14 02:07:04;;;;;;;18.88;3.60;;;;;;;;;;5026521;28;20025;-67
2022/09/14 02:09:30;;;;;;;20.45;3.53;;;;;;;;;;5032990;28;20029;-67
2022/09/14 02:11:59;;;;;;;15.20;3.38;;;;;;;;;;5037609;28;20039;-66
2022/09/14 02:14:26;;;;;;;19.88;3.97;;;;;;;;;;5036645;28;20510;-66
2022/09/14 02:16:52;;;;;;;17.92;3.60;;;;;;;;;;5021591;28;20523;-66
2022/09/14 02:19:19;;;;;;;21.50;3.90;;;;;;;;;;5038831;28;20070;-66
2022/09/14 02:21:45;;;;;;;27.60;4.57;;;;;;;;;;5036727;28;20115;-66
2022/09/14 02:24:12;;;;;;;20.52;4.35;;;;;;;;;;5027394;28;20372;-66
2022/09/14 02:26:39;;;;;;;19.23;4.05;;;;;;;;;;5035273;28;20487;-66
2022/09/14 02:29:05;;;;;;;20.75;4.43;;;;;;;;;;5010132;28;20322;-66
2022/09/14 02:31:40;;;;;;;22.77;4.25;;;;;;;;;;5036367;28;20439;-66
2022/09/14 02:34:12;;;;;;;23.00;4.47;;;;;;;;;;5026327;28;20036;-66
2022/09/14 02:36:50;;;;;;;19.52;4.05;;;;;;;;;;5033641;28;20273;-66
2022/09/14 02:39:19;;;;;;;21.88;4.18;;;;;;;;;;5010174;28;20036;-66
2022/09/14 02:41:50;;;;;;;21.85;4.22;;;;;;;;;;5037056;28;20102;-66
2022/09/14 02:44:27;;;;;;;21.90;3.95;;;;;;;;;;5029211;28;21705;-66
2022/09/14 02:47:07;;;;;;;19.10;4.38;;;;;;;;;;5014013;28;20624;-66
2022/09/14 02:49:49;;;;;;;22.95;5.13;;;;;;;;;;5016965;28;20486;-66
2022/09/14 02:52:21;;;;;;;20.38;4.47;;;;;;;;;;5032687;28;20049;-66
2022/09/14 02:54:52;;;;;;;20.88;3.90;;;;;;;;;;5035281;28;20105;-66
2022/09/14 02:57:18;;;;;;;20.05;4.32;;;;;;;;;;5017204;28;20329;-66
2022/09/14 02:59:44;;;;;;;19.05;3.95;;;;;;;;;;5035061;28;20029;-66
2022/09/14 03:02:10;;;;;;;27.20;4.40;;;;;;;;;;5029235;28;20048;-65
2022/09/14 03:04:37;;;;;;;22.42;4.32;;;;;;;;;;5032611;28;20104;-67
2022/09/14 03:07:03;;;;;;;19.63;4.30;;;;;;;;;;5019528;28;20036;-64
2022/09/14 03:09:29;;;;;;;21.60;4.07;;;;;;;;;;5040720;28;20489;-66
2022/09/14 03:11:55;;;;;;;23.67;4.20;;;;;;;;;;5036477;28;20286;-65
2022/09/14 03:14:21;;;;;;;22.55;4.30;;;;;;;;;;5023833;28;20135;-66
2022/09/14 03:16:47;;;;;;;23.98;4.22;;;;;;;;;;5037819;28;20479;-65
2022/09/14 03:19:13;;;;;;;26.20;4.45;;;;;;;;;;5033651;28;20048;-66
2022/09/14 03:21:39;;;;;;;23.08;4.40;;;;;;;;;;5039753;28;20070;-65
2022/09/14 03:24:06;;;;;;;20.52;4.13;;;;;;;;;;5032545;28;20021;-65
2022/09/14 03:26:35;;;;;;;20.17;4.38;;;;;;;;;;5041211;28;20033;-65
2022/09/14 03:29:02;;;;;;;20.65;4.07;;;;;;;;;;5033421;28;20125;-65
2022/09/14 03:31:28;;;;;;;21.33;4.30;;;;;;;;;;5036662;28;20033;-66
2022/09/14 03:33:55;;;;;;;21.02;4.20;;;;;;;;;;5034691;28;20031;-65
2022/09/14 03:36:22;;;;;;;21.52;4.25;;;;;;;;;;5036054;28;20029;-65
2022/09/14 03:38:49;;;;;;;18.52;3.78;;;;;;;;;;5034619;28;20459;-65
2022/09/14 03:41:15;;;;;;;20.90;4.22;;;;;;;;;;5029670;28;20170;-65
2022/09/14 03:43:42;;;;;;;19.85;4.20;;;;;;;;;;5036091;28;20052;-66
2022/09/14 03:46:10;;;;;;;19.55;4.22;;;;;;;;;;5035494;28;20475;-66
2022/09/14 03:48:36;;;;;;;21.10;4.25;;;;;;;;;;5034196;28;20645;-66
2022/09/14 03:51:03;;;;;;;26.73;5.13;;;;;;;;;;5027291;28;20056;-66
2022/09/14 03:53:30;;;;;;;21.83;4.60;;;;;;;;;;5036725;28;20025;-66
2022/09/14 03:55:56;;;;;;;22.92;4.28;;;;;;;;;;5034978;28;20100;-66
2022/09/14 03:58:22;;;;;;;21.33;4.57;;;;;;;;;;5032172;28;20113;-66
2022/09/14 04:00:48;;;;;;;15.77;3.58;;;;;;;;;;5033777;28;20604;-66
2022/09/14 04:03:15;;;;;;;21.08;4.07;;;;;;;;;;5030887;28;20077;-66
2022/09/14 04:05:41;;;;;;;15.65;3.80;;;;;;;;;;5036112;28;20533;-66
2022/09/14 04:08:07;;;;;;;18.88;4.32;;;;;;;;;;5017841;28;20799;-66
2022/09/14 04:10:33;;;;;;;17.52;3.90;;;;;;;;;;5034823;28;20918;-66
2022/09/14 04:13:00;;;;;;;21.40;4.40;;;;;;;;;;5038149;28;20028;-66
2022/09/14 04:15:27;;;;;;;19.33;3.63;;;;;;;;;;5036745;28;21467;-67
2022/09/14 04:17:53;;;;;;;19.60;3.50;;;;;;;;;;5017659;28;20021;-66
2022/09/14 04:20:19;;;;;;;16.08;3.70;;;;;;;;;;5041076;28;20036;-66
2022/09/14 04:22:46;;;;;;;19.95;4.28;;;;;;;;;;5019363;28;20079;-66
2022/09/14 04:25:12;;;;;;;22.08;4.88;;;;;;;;;;5035069;28;20041;-66
2022/09/14 04:27:38;;;;;;;23.88;4.95;;;;;;;;;;5032938;28;20029;-66
2022/09/14 04:30:05;;;;;;;17.52;4.18;;;;;;;;;;5037764;28;20057;-66
2022/09/14 04:32:31;;;;;;;16.30;3.88;;;;;;;;;;5033882;28;20044;-66
2022/09/14 04:34:58;;;;;;;21.63;4.65;;;;;;;;;;5009291;28;20683;-66
2022/09/14 04:37:24;;;;;;;22.98;5.47;;;;;;;;;;5014452;28;20110;-66
2022/09/14 04:39:50;;;;;;;17.70;4.30;;;;;;;;;;5033125;28;20025;-65
2022/09/14 04:42:16;;;;;;;24.15;4.80;;;;;;;;;;5034767;28;20464;-66
2022/09/14 04:44:42;;;;;;;28.15;5.10;;;;;;;;;;5033946;28;20033;-68
2022/09/14 04:47:08;;;;;;;17.23;3.95;;;;;;;;;;5036296;28;20036;-66
2022/09/14 04:49:34;;;;;;;18.98;4.45;;;;;;;;;;5040020;28;20115;-66
2022/09/14 04:52:01;;;;;;;23.52;4.80;;;;;;;;;;5027241;28;20053;-66
2022/09/14 04:54:27;;;;;;;19.58;4.63;;;;;;;;;;5027045;28;20024;-66
2022/09/14 04:56:53;;;;;;;19.45;4.18;;;;;;;;;;5028370;28;20029;-66
2022/09/14 04:59:19;;;;;;;21.35;4.78;;;;;;;;;;5037183;28;20028;-66
2022/09/14 05:01:49;;;;;;;24.60;4.95;;;;;;;;;;5029469;28;20300;-67
2022/09/14 05:04:15;;;;;;;27.08;4.97;;;;;;;;;;5028918;28;20460;-66
2022/09/14 05:06:42;;;;;;;19.05;4.20;;;;;;;;;;5036127;28;20040;-66
2022/09/14 05:09:13;;;;;;;23.45;4.70;;;;;;;;;;5027941;28;20467;-66
2022/09/14 05:11:39;;;;;;;20.98;4.47;;;;;;;;;;5034259;28;20463;-66
2022/09/14 05:14:06;;;;;;;19.70;4.63;;;;;;;;;;5025838;28;20056;-67
2022/09/14 05:16:33;;;;;;;20.85;3.95;;;;;;;;;;5013320;28;20496;-66
2022/09/14 05:19:01;;;;;;;18.08;4.10;;;;;;;;;;5029299;28;20375;-66
2022/09/14 05:21:28;;;;;;;20.23;3.92;;;;;;;;;;5030856;28;20678;-66
2022/09/14 05:23:55;;;;;;;25.63;4.72;;;;;;;;;;5028447;28;20029;-66
2022/09/14 05:26:21;;;;;;;25.23;5.40;;;;;;;;;;5028554;28;20439;-66
2022/09/14 05:28:52;;;;;;;23.45;4.75;;;;;;;;;;5015106;28;20039;-66
2022/09/14 05:31:18;;;;;;;21.38;4.40;;;;;;;;;;5008713;28;20642;-65
2022/09/14 05:33:44;;;;;;;28.17;4.75;;;;;;;;;;5025625;28;20154;-65
2022/09/14 05:36:10;;;;;;;28.80;5.43;;;;;;;;;;5021046;28;20037;-67
2022/09/14 05:38:38;;;;;;;23.13;4.88;;;;;;;;;;5034148;28;20505;-67
2022/09/14 05:41:05;;;;;;;21.38;4.50;;;;;;;;;;5028935;28;20107;-65
2022/09/14 05:43:32;;;;;;;23.88;5.22;;;;;;;;;;5038824;28;20033;-66
2022/09/14 05:46:05;;;;;;;26.52;4.35;;;;;;;;;;5031207;28;20134;-66
2022/09/14 05:48:32;;;;;;;23.13;4.85;;;;;;;;;;5017946;28;20164;-65
2022/09/14 05:50:59;;;;;;;19.63;4.28;;;;;;;;;;5026538;28;20025;-65
2022/09/14 05:53:25;;;;;;;17.27;4.10;;;;;;;;;;5033731;28;20032;-66
2022/09/14 05:56:05;;;;;;;21.08;4.25;;;;;;;;;;5041368;28;20052;-66
2022/09/14 05:58:31;;;;;;;19.13;4.07;;;;;;;;;;5029607;28;20030;-66
2022/09/14 06:00:57;;;;;;;21.35;4.97;;;;;;;;;;5010629;28;20040;-66
2022/09/14 06:03:24;;;;;;;24.85;4.97;;;;;;;;;;5014693;28;20055;-66
2022/09/14 06:05:53;;;;;;;24.05;4.40;;;;;;;;;;5035165;28;20484;-67
2022/09/14 06:08:20;;;;;;;21.80;5.05;;;;;;;;;;5039176;28;20091;-66
2022/09/14 06:10:46;;;;;;;22.20;4.60;;;;;;;;;;5036201;28;20041;-67
2022/09/14 06:13:12;;;;;;;19.45;5.15;;;;;;;;;;5036374;28;21242;-67
2022/09/14 06:15:38;;;;;;;23.33;5.63;;;;;;;;;;5038865;28;20088;-67
2022/09/14 06:18:04;;;;;;;19.25;4.32;;;;;;;;;;5037263;28;20052;-67
2022/09/14 06:20:30;;;;;;;21.55;4.95;;;;;;;;;;5020740;28;20102;-67
2022/09/14 06:22:56;;;;;;;25.38;5.13;;;;;;;;;;5036039;28;20036;-66
2022/09/14 06:25:23;;;;;;;18.58;4.38;;;;;;;;;;5036480;28;20398;-66
2022/09/14 06:27:49;;;;;;;22.48;5.10;;;;;;;;;;5037903;28;20031;-66
2022/09/14 06:30:15;;;;;;;20.13;4.78;;;;;;;;;;4998866;28;20399;-66
2022/09/14 06:32:41;;;;;;;26.58;5.40;;;;;;;;;;5020744;28;21114;-66
2022/09/14 06:35:08;;;;;;;17.85;4.05;;;;;;;;;;5033126;28;20082;-66
2022/09/14 06:37:34;;;;;;;25.58;4.45;;;;;;;;;;5032146;28;20058;-66
2022/09/14 06:40:00;;;;;;;22.48;4.70;;;;;;;;;;5017067;28;20572;-66
2022/09/14 06:42:28;;;;;;;26.10;4.70;;;;;;;;;;5036143;28;20063;-67
2022/09/14 06:44:54;;;;;;;26.02;6.25;;;;;;;;;;5033746;28;20129;-65
2022/09/14 06:47:20;;;;;;;19.85;5.30;;;;;;;;;;5033604;28;20108;-68
2022/09/14 06:49:48;;;;;;;26.33;6.10;;;;;;;;;;5015664;28;20037;-66
2022/09/14 06:52:14;;;;;;;19.48;4.70;;;;;;;;;;5032173;28;20032;-65
2022/09/14 06:54:41;;;;;;;21.42;4.43;;;;;;;;;;5034316;28;20055;-65
2022/09/14 06:57:07;;;;;;;25.65;4.72;;;;;;;;;;5032346;28;20404;-66
2022/09/14 06:59:33;;;;;;;23.42;5.07;;;;;;;;;;5035777;28;20021;-66
2022/09/14 07:01:59;;;;;;;22.25;4.80;;;;;;;;;;5031778;28;20125;-68
2022/09/14 07:04:25;;;;;;;19.70;3.67;;;;;;;;;;5032689;28;20033;-67
2022/09/14 07:06:51;;;;;;;19.55;4.20;;;;;;;;;;5033753;28;20071;-66
2022/09/14 07:09:18;;;;;;;20.40;4.88;;;;;;;;;;5037273;28;20423;-66
2022/09/14 07:11:44;;;;;;;17.85;4.70;;;;;;;;;;5025264;28;20025;-65
2022/09/14 07:14:11;;;;;;;19.73;4.22;;;;;;;;;;5021104;28;20036;-67
2022/09/14 07:16:38;;;;;;;22.02;4.65;;;;;;;;;;5023987;28;20033;-66
2022/09/14 07:19:05;;;;;;;19.10;4.00;;;;;;;;;;5014510;28;20033;-66
2022/09/14 07:21:32;;;;;;;21.63;4.95;;;;;;;;;;5039906;28;20130;-66
2022/09/14 07:23:59;;;;;;;23.65;4.95;;;;;;;;;;5012813;28;20280;-66
2022/09/14 07:26:30;;;;;;;22.80;4.68;;;;;;;;;;5016744;28;20080;-66
2022/09/14 07:28:57;;;;;;;23.13;4.88;;;;;;;;;;5033364;28;20483;-66
2022/09/14 07:31:26;;;;;;;24.63;5.18;;;;;;;;;;5037541;28;20027;-66
2022/09/14 07:33:53;;;;;;;23.73;5.22;;;;;;;;;;5036153;28;20067;-66
2022/09/14 07:36:20;;;;;;;27.42;5.28;;;;;;;;;;5014422;28;20032;-66
2022/09/14 07:38:46;;;;;;;23.30;5.22;;;;;;;;;;5019756;28;20028;-67
2022/09/14 07:41:12;;;;;;;21.27;4.88;;;;;;;;;;5015281;28;22602;-66
2022/09/14 07:43:38;;;;;;;25.77;5.03;;;;;;;;;;5034965;28;20063;-66
2022/09/14 07:46:05;;;;;;;22.42;4.82;;;;;;;;;;5034201;28;20041;-68
2022/09/14 07:48:31;;;;;;;22.02;4.35;;;;;;;;;;5039296;28;20028;-66
2022/09/14 07:51:01;;;;;;;21.40;4.63;;;;;;;;;;5035524;28;20934;-65
2022/09/14 07:53:27;;;;;;;25.77;4.90;;;;;;;;;;5035133;28;20032;-68
2022/09/14 07:55:53;;;;;;;21.27;4.80;;;;;;;;;;5035468;28;20531;-66
2022/09/14 07:58:21;;;;;;;27.20;5.40;;;;;;;;;;5037073;28;20026;-66
2022/09/14 08:00:47;;;;;;;21.88;4.95;;;;;;;;;;5014542;28;20036;-66
2022/09/14 08:03:14;;;;;;;21.63;4.60;;;;;;;;;;5033056;28;20357;-66
2022/09/14 08:05:40;;;;;;;25.40;5.18;;;;;;;;;;5032167;28;20140;-66
2022/09/14 08:08:06;;;;;;;22.88;4.63;;;;;;;;;;5034336;28;20025;-66
2022/09/14 08:10:34;;;;;;;21.67;5.10;;;;;;;;;;5035952;28;20264;-66
2022/09/14 08:13:00;;;;;;;29.30;5.00;;;;;;;;;;5034828;28;20025;-67
2022/09/14 08:15:27;;;;;;;25.08;5.30;;;;;;;;;;5042765;28;20044;-65
2022/09/14 08:17:54;;;;;;;18.23;4.47;;;;;;;;;;5014089;28;20363;-65
2022/09/14 08:20:21;;;;;;;31.60;5.57;;;;;;;;;;5037266;28;20060;-66
2022/09/14 08:22:47;;;;;;;21.10;4.50;;;;;;;;;;5029768;28;20029;-66
2022/09/14 08:25:13;;;;;;;18.08;4.28;;;;;;;;;;5031855;28;20044;-66
2022/09/14 08:27:39;;;;;;;20.83;4.55;;;;;;;;;;5033269;28;20031;-66
2022/09/14 08:30:06;;;;;;;22.38;5.07;;;;;;;;;;5009895;28;20419;-65
2022/09/14 08:32:32;;;;;;;26.70;5.05;;;;;;;;;;5036886;28;20764;-66
2022/09/14 08:34:58;;;;;;;19.95;4.07;;;;;;;;;;5030422;28;20120;-66
2022/09/14 08:37:24;;;;;;;23.55;4.47;;;;;;;;;;5036551;28;20025;-66
2022/09/14 08:39:51;;;;;;;19.52;4.47;;;;;;;;;;5014854;28;20466;-66
2022/09/14 08:42:18;;;;;;;18.95;4.28;;;;;;;;;;5020775;28;20021;-66
2022/09/14 08:44:48;;;;;;;22.58;4.40;;;;;;;;;;5013818;28;20024;-66
2022/09/14 08:47:14;;;;;;;20.15;3.70;;;;;;;;;;5037526;28;20037;-65
2022/09/14 08:49:40;;;;;;;18.27;4.20;;;;;;;;;;5034402;28;20028;-65
2022/09/14 08:52:29;;;;;;;25.02;4.72;;;;;;;;;;5033187;28;20043;-65
2022/09/14 08:54:57;;;;;;;14.02;3.35;;;;;;;;;;5022179;28;20510;-66
2022/09/14 08:57:26;;;;;;;20.80;3.70;;;;;;;;;;5037578;28;20060;-67
2022/09/14 09:00:01;;;;;;;22.25;4.40;;;;;;;;;;5032862;28;20036;-65
2022/09/14 09:02:40;;;;;;;21.90;5.28;;;;;;;;;;5006035;28;20486;-69
2022/09/14 09:05:12;;;;;;;22.60;4.20;;;;;;;;;;5016104;28;20033;-66
2022/09/14 09:07:47;;;;;;;19.23;4.28;;;;;;;;;;5015544;28;20591;-66
2022/09/14 09:10:14;;;;;;;21.05;4.43;;;;;;;;;;5010705;28;20551;-66
2022/09/14 09:12:52;;;;;;;17.83;3.75;;;;;;;;;;5013851;28;20036;-65
2022/09/14 09:15:30;;;;;;;18.80;3.97;;;;;;;;;;5017287;28;20540;-66
2022/09/14 09:18:01;;;;;;;20.00;3.97;;;;;;;;;;5013159;28;20036;-67
2022/09/14 09:20:48;;;;;;;22.80;5.05;;;;;;;;;;4999856;28;20139;-66
2022/09/14 09:23:16;;;;;;;18.65;4.45;;;;;;;;;;5013035;28;20724;-66
2022/09/14 09:26:04;;;;;;;21.90;4.90;;;;;;;;;;5016492;28;20597;-67
2022/09/14 09:28:31;;;;;;;18.73;4.30;;;;;;;;;;5019477;28;20033;-66
2022/09/14 09:30:59;;;;;;;21.88;4.82;;;;;;;;;;5009796;28;20061;-66
2022/09/14 09:33:26;;;;;;;20.88;4.57;;;;;;;;;;5015678;28;20026;-66
2022/09/14 09:35:53;;;;;;;19.75;4.88;;;;;;;;;;5014078;28;20044;-68
2022/09/14 09:38:23;;;;;;;17.67;4.07;;;;;;;;;;5020189;28;20025;-66
2022/09/14 09:41:05;;;;;;;21.15;4.78;;;;;;;;;;5024027;28;20036;-66
2022/09/14 09:43:31;;;;;;;19.95;4.40;;;;;;;;;;5017531;28;20047;-66
2022/09/14 09:46:01;;;;;;;19.33;4.68;;;;;;;;;;4995810;28;20036;-66
2022/09/14 09:48:34;;;;;;;20.58;5.15;;;;;;;;;;5017543;28;20443;-67
2022/09/14 09:51:11;;;;;;;20.48;5.07;;;;;;;;;;5009620;28;20037;-66
2022/09/14 09:53:38;;;;;;;25.55;5.82;;;;;;;;;;5014556;28;20022;-67
2022/09/14 09:56:05;;;;;;;20.73;5.38;;;;;;;;;;5009211;28;20457;-67
2022/09/14 09:58:34;;;;;;;23.73;5.03;;;;;;;;;;5014079;28;20059;-66
2022/09/14 10:01:01;;;;;;;21.77;4.80;;;;;;;;;;5014052;28;20029;-66
2022/09/14 10:03:29;;;;;;;22.98;5.32;;;;;;;;;;5011246;28;20521;-65
2022/09/14 10:06:03;;;;;;;20.25;4.65;;;;;;;;;;5022614;28;20064;-66
2022/09/14 10:08:33;;;;;;;17.63;4.47;;;;;;;;;;5035665;28;20025;-67
2022/09/14 10:11:01;;;;;;;20.65;4.70;;;;;;;;;;5026520;28;20036;-66
2022/09/14 10:13:36;;;;;;;21.38;4.85;;;;;;;;;;5039911;28;20744;-66
2022/09/14 10:16:07;;;;;;;20.38;4.93;;;;;;;;;;5031392;28;20031;-66
2022/09/14 10:18:34;;;;;;;21.15;4.72;;;;;;;;;;5035641;28;20028;-66
2022/09/14 10:21:05;;;;;;;18.75;4.20;;;;;;;;;;5033759;28;20363;-66
2022/09/14 10:23:35;;;;;;;14.93;4.15;;;;;;;;;;5037833;28;20028;-65
2022/09/14 10:26:10;;;;;;;18.92;4.75;;;;;;;;;;5015251;28;20039;-66
2022/09/14 10:28:36;;;;;;;18.83;4.32;;;;;;;;;;5033272;28;20017;-65
2022/09/14 10:31:02;;;;;;;25.33;5.60;;;;;;;;;;5013110;28;20043;-66
2022/09/14 10:33:29;;;;;;;20.05;4.78;;;;;;;;;;5032740;28;20094;-66
2022/09/14 10:36:14;;;;;;;19.50;4.63;;;;;;;;;;5031030;28;20035;-66
2022/09/14 10:38:40;;;;;;;20.77;4.90;;;;;;;;;;5023544;28;20082;-65
2022/09/14 10:41:15;;;;;;;17.25;4.85;;;;;;;;;;5037147;28;20064;-66
2022/09/14 10:44:00;;;;;;;24.52;4.95;;;;;;;;;;5037209;28;20417;-67
2022/09/14 10:46:29;;;;;;;19.23;4.90;;;;;;;;;;5035697;28;20091;-66
2022/09/14 10:49:01;;;;;;;21.83;5.63;;;;;;;;;;5037418;28;20028;-66
2022/09/14 10:51:32;;;;;;;19.27;4.95;;;;;;;;;;5038313;28;20382;-66
2022/09/14 10:54:07;;;;;;;21.48;5.18;;;;;;;;;;5037801;28;20110;-66
2022/09/14 10:56:46;;;;;;;18.85;5.80;;;;;;;;;;5035246;28;20037;-66
2022/09/14 10:59:12;;;;;;;26.38;5.05;;;;;;;;;;5035407;28;22728;-67
2022/09/14 11:01:46;;;;;;;23.15;5.45;;;;;;;;;;5036582;28;20135;-67
2022/09/14 11:04:27;;;;;;;23.38;5.28;;;;;;;;;;5013191;28;20848;-66
2022/09/14 11:07:03;;;;;;;21.45;5.03;;;;;;;;;;5028015;28;20303;-67
2022/09/14 11:09:52;;;;;;;20.30;4.90;;;;;;;;;;5004350;28;20307;-66
2022/09/14 11:12:28;;;;;;;18.58;4.30;;;;;;;;;;5008356;28;20475;-67
2022/09/14 11:14:54;;;;;;;22.95;5.03;;;;;;;;;;5030023;28;20104;-66
2022/09/14 11:17:20;;;;;;;20.95;5.07;;;;;;;;;;5038172;28;20086;-66
2022/09/14 11:20:12;;;;;;;20.88;4.28;;;;;;;;;;5038800;28;20023;-66
2022/09/14 11:22:48;;;;;;;21.42;5.28;;;;;;;;;;5035118;28;20033;-66
2022/09/14 11:25:18;;;;;;;18.33;4.47;;;;;;;;;;5036764;28;20013;-65
2022/09/14 11:27:48;;;;;;;16.95;4.00;;;;;;;;;;5032291;28;20062;-66
2022/09/14 11:30:18;;;;;;;19.58;4.57;;;;;;;;;;5030519;28;20030;-68
2022/09/14 11:32:44;;;;;;;26.20;5.30;;;;;;;;;;5035452;28;20303;-68
2022/09/14 11:35:13;;;;;;;25.70;5.25;;;;;;;;;;5033867;28;20099;-67
2022/09/14 11:37:42;;;;;;;19.23;4.47;;;;;;;;;;5039148;28;20033;-66
2022/09/14 11:40:20;;;;;;;21.92;5.85;;;;;;;;;;5018518;28;20141;-67
2022/09/14 11:42:52;;;;;;;26.05;5.50;;;;;;;;;;5037147;28;20039;-66
2022/09/14 11:45:36;;;;;;;24.77;4.90;;;;;;;;;;5015482;28;20470;-66
2022/09/14 11:48:08;;;;;;;22.13;5.03;;;;;;;;;;5031952;28;20033;-65
2022/09/14 11:50:35;;;;;;;24.52;6.97;;;;;;;;;;5037881;28;20508;-67
2022/09/14 11:53:07;;;;;;;22.42;5.57;;;;;;;;;;5038523;28;20052;-66
2022/09/14 11:55:33;;;;;;;20.85;6.22;;;;;;;;;;5041262;28;20028;-66
2022/09/14 11:58:00;;;;;;;28.75;6.50;;;;;;;;;;5015478;28;20032;-65
2022/09/14 12:00:33;;;;;;;26.40;5.60;;;;;;;;;;5014455;28;20040;-66
2022/09/14 12:02:59;;;;;;;21.35;5.25;;;;;;;;;;5029699;28;20045;-65
2022/09/14 12:05:28;;;;;;;20.02;4.60;;;;;;;;;;5036813;28;20072;-65
2022/09/14 12:07:58;;;;;;;20.95;4.47;;;;;;;;;;5036659;28;20033;-66
2022/09/14 12:10:25;;;;;;;20.45;4.45;;;;;;;;;;5036863;28;20025;-66
2022/09/14 12:12:55;;;;;;;18.45;3.90;;;;;;;;;;5017620;28;20114;-66
2022/09/14 12:15:24;;;;;;;19.20;4.07;;;;;;;;;;5038450;28;20371;-66
2022/09/14 12:18:12;;;;;;;16.90;4.32;;;;;;;;;;5038385;28;20029;-66
2022/09/14 12:20:40;;;;;;;16.38;3.42;;;;;;;;;;5036777;28;20053;-66
2022/09/14 12:23:17;;;;;;;15.73;3.50;;;;;;;;;;5031211;28;20028;-67
2022/09/14 12:25:54;;;;;;;26.27;4.82;;;;;;;;;;5035383;28;20163;-66
2022/09/14 12:28:36;;;;;;;21.05;5.03;;;;;;;;;;5039986;28;20051;-66
2022/09/14 12:31:02;;;;;;;21.08;4.32;;;;;;;;;;5035808;28;20086;-66
2022/09/14 12:33:31;;;;;;;16.88;4.07;;;;;;;;;;5036272;28;20486;-66
2022/09/14 12:35:58;;;;;;;21.55;4.05;;;;;;;;;;5002929;28;20063;-66
2022/09/14 12:38:30;;;;;;;22.38;4.60;;;;;;;;;;5019746;28;20571;-66
2022/09/14 12:41:01;;;;;;;20.83;4.47;;;;;;;;;;5030392;28;20060;-66
2022/09/14 12:43:36;;;;;;;19.05;4.18;;;;;;;;;;5044142;28;20039;-66
2022/09/14 12:46:03;;;;;;;17.15;4.20;;;;;;;;;;5026167;28;20033;-66
2022/09/14 12:48:49;;;;;;;22.13;4.10;;;;;;;;;;5038839;28;20126;-66
2022/09/14 12:51:28;;;;;;;21.50;4.07;;;;;;;;;;5029903;28;20033;-66
2022/09/14 12:54:13;;;;;;;17.98;4.00;;;;;;;;;;5014161;28;20036;-65
2022/09/14 12:56:42;;;;;;;18.05;3.97;;;;;;;;;;5034017;28;20036;-68
2022/09/14 12:59:24;;;;;;;17.90;4.13;;;;;;;;;;5030659;28;20036;-66
2022/09/14 13:01:59;;;;;;;23.83;4.28;;;;;;;;;;5018314;28;20063;-66
2022/09/14 13:04:27;;;;;;;21.73;4.22;;;;;;;;;;5019186;28;20090;-66
2022/09/14 13:06:55;;;;;;;25.17;4.50;;;;;;;;;;5033511;28;20033;-66
2022/09/14 13:09:22;;;;;;;18.75;4.30;;;;;;;;;;5021375;28;20734;-67
2022/09/14 13:11:58;;;;;;;20.58;4.45;;;;;;;;;;5037385;28;20033;-67
2022/09/14 13:14:26;;;;;;;24.20;4.68;;;;;;;;;;5040151;28;20149;-69
2022/09/14 13:16:53;;;;;;;23.23;5.28;;;;;;;;;;5037438;28;20029;-67
2022/09/14 13:19:28;;;;;;;21.50;4.57;;;;;;;;;;5042675;28;20876;-67
2022/09/14 13:21:55;;;;;;;21.90;4.78;;;;;;;;;;5033508;28;20824;-66
2022/09/14 13:24:35;;;;;;;20.27;4.28;;;;;;;;;;5040132;28;20039;-68
2022/09/14 13:27:03;;;;;;;21.48;4.70;;;;;;;;;;5015953;28;20193;-68
2022/09/14 13:29:30;;;;;;;18.67;4.60;;;;;;;;;;5038976;28;20056;-68
2022/09/14 13:31:57;;;;;;;21.73;4.68;;;;;;;;;;5035834;28;20033;-67
2022/09/14 13:34:26;;;;;;;23.10;4.38;;;;;;;;;;5036674;28;20448;-68
2022/09/14 13:36:52;;;;;;;21.30;3.88;;;;;;;;;;5041623;28;20020;-66
2022/09/14 13:39:25;;;;;;;20.88;4.05;;;;;;;;;;5040227;28;20921;-67
2022/09/14 13:41:51;;;;;;;21.08;4.30;;;;;;;;;;5045789;28;20029;-67
2022/09/14 13:44:18;;;;;;;23.63;4.80;;;;;;;;;;5039667;28;20240;-67
2022/09/14 13:46:45;;;;;;;27.73;4.43;;;;;;;;;;5040290;28;20356;-68
2022/09/14 13:49:12;;;;;;;26.88;5.13;;;;;;;;;;5039793;28;20478;-66
2022/09/14 13:51:38;;;;;;;20.42;4.63;;;;;;;;;;5037854;28;20032;-67
2022/09/14 13:54:33;;;;;;;24.55;5.10;;;;;;;;;;5042366;28;20025;-69
2022/09/14 13:57:16;;;;;;;19.85;4.15;;;;;;;;;;4973270;28;20540;-66
2022/09/14 14:00:06;;;;;;;24.20;4.53;;;;;;;;;;4978276;28;20060;-68
2022/09/14 14:02:33;;;;;;;20.05;4.45;;;;;;;;;;4986014;28;20042;-67
2022/09/14 14:04:59;;;;;;;22.40;4.47;;;;;;;;;;4983825;28;20053;-67
2022/09/14 14:07:32;;;;;;;18.40;4.18;;;;;;;;;;4981510;28;20133;-68
2022/09/14 14:09:59;;;;;;;20.17;4.22;;;;;;;;;;4958631;28;20105;-67
2022/09/14 14:12:27;;;;;;;28.33;4.65;;;;;;;;;;4978682;28;20061;-70
2022/09/14 14:15:00;;;;;;;21.20;4.03;;;;;;;;;;4980176;28;20480;-69
2022/09/14 14:17:29;;;;;;;20.42;4.03;;;;;;;;;;4981103;28;20486;-70
2022/09/14 14:20:14;;;;;;;22.05;4.82;;;;;;;;;;4973353;28;20047;-70
2022/09/14 14:22:40;;;;;;;19.50;4.38;;;;;;;;;;4981801;28;20073;-69
2022/09/14 14:25:19;;;;;;;19.65;3.97;;;;;;;;;;4978563;28;20034;-69
2022/09/14 14:27:46;;;;;;;19.60;4.40;;;;;;;;;;4979306;28;20049;-70
2022/09/14 14:30:14;;;;;;;24.10;4.18;;;;;;;;;;4967023;28;20066;-70
2022/09/14 14:32:40;;;;;;;22.58;4.60;;;;;;;;;;4978382;28;20306;-70
2022/09/14 14:35:13;;;;;;;18.80;4.05;;;;;;;;;;5027841;28;20087;-69
2022/09/14 14:37:39;;;;;;;22.02;4.22;;;;;;;;;;5037241;28;20116;-68
2022/09/14 14:40:06;;;;;;;22.98;4.43;;;;;;;;;;5036212;28;20032;-69
2022/09/14 14:42:32;;;;;;;16.70;3.80;;;;;;;;;;5034209;28;20039;-68
2022/09/14 14:44:59;;;;;;;21.85;3.65;;;;;;;;;;5031302;28;20031;-68